createdAt,value
2022-12-03T00:01:57.215Z,99250.50
2022-12-03T00:04:24.344Z,99251.75
2022-12-03T00:06:51.310Z,99245.47
2022-12-03T00:09:18.188Z,99250.25
2022-12-03T00:11:45.142Z,99257.34
2022-12-03T00:14:12.174Z,99250.63
2022-12-03T00:16:39.130Z,99249.75
2022-12-03T00:19:07.891Z,99267.00
2022-12-03T00:21:35.137Z,99254.69
2022-12-03T00:24:02.128Z,99257.34
2022-12-03T00:26:29.163Z,99255.97
2022-12-03T00:28:56.479Z,99260.66
2022-12-03T00:31:24.142Z,99254.84
2022-12-03T00:33:51.998Z,99261.38
2022-12-03T00:36:19.954Z,99257.06
2022-12-03T00:38:46.896Z,99245.41
2022-12-03T00:41:13.784Z,99257.44
2022-12-03T00:43:40.811Z,99235.59
2022-12-03T00:46:07.757Z,99245.31
2022-12-03T00:48:34.768Z,99238.88
2022-12-03T00:51:01.708Z,99238.78
2022-12-03T00:53:28.855Z,99236.03
2022-12-03T00:55:55.788Z,99238.44
2022-12-03T00:58:22.715Z,99223.81
2022-12-03T01:00:49.653Z,99185.78
2022-12-03T01:03:16.616Z,99213.00
2022-12-03T01:05:43.737Z,99221.38
2022-12-03T01:08:10.783Z,99233.13
2022-12-03T01:10:37.783Z,99229.72
2022-12-03T01:13:04.707Z,99236.84
2022-12-03T01:15:31.620Z,99225.75
2022-12-03T01:17:58.573Z,99217.53
2022-12-03T01:20:25.576Z,99218.72
2022-12-03T01:22:52.542Z,99214.63
2022-12-03T01:25:19.491Z,99229.44
2022-12-03T01:27:46.407Z,99221.59
2022-12-03T01:30:14.075Z,99209.06
2022-12-03T01:32:40.979Z,99218.50
2022-12-03T01:35:08.285Z,99227.72
2022-12-03T01:37:35.255Z,99221.56
2022-12-03T01:40:02.330Z,99217.31
2022-12-03T01:42:37.303Z,99211.06
2022-12-03T01:45:04.673Z,99209.16
2022-12-03T01:47:35.549Z,99219.19
2022-12-03T01:50:13.776Z,99222.22
2022-12-03T01:52:41.248Z,99218.16
2022-12-03T01:55:15.386Z,99227.56
2022-12-03T01:57:54.444Z,99227.13
2022-12-03T02:00:27.516Z,99230.50
2022-12-03T02:02:57.562Z,99217.22
2022-12-03T02:05:27.656Z,99208.09
2022-12-03T02:08:11.107Z,99208.94
2022-12-03T02:10:57.476Z,99210.91
2022-12-03T02:13:41.343Z,99212.09
2022-12-03T02:16:29.793Z,99206.75
2022-12-03T02:19:19.278Z,99210.72
2022-12-03T02:22:20.560Z,99216.28
2022-12-03T02:25:09.049Z,99228.97
2022-12-03T02:27:59.276Z,99217.41
2022-12-03T02:30:27.934Z,99224.19
2022-12-03T02:32:56.029Z,99231.19
2022-12-03T02:35:28.774Z,99223.97
2022-12-03T02:38:00.577Z,99222.97
2022-12-03T02:40:31.562Z,99231.94
2022-12-03T02:43:01.654Z,99212.72
2022-12-03T02:45:31.125Z,99229.38
2022-12-03T02:48:01.619Z,99231.44
2022-12-03T02:50:38.211Z,99225.63
2022-12-03T02:53:12.489Z,99208.41
2022-12-03T02:55:40.417Z,99206.50
2022-12-03T02:58:07.690Z,99206.81
2022-12-03T03:00:36.447Z,99202.75
2022-12-03T03:03:06.223Z,99219.56
2022-12-03T03:05:36.036Z,99202.91
2022-12-03T03:08:03.793Z,99210.03
2022-12-03T03:10:33.432Z,99207.75
2022-12-03T03:13:04.791Z,99224.06
2022-12-03T03:15:31.780Z,99210.63
2022-12-03T03:17:58.696Z,99226.50
2022-12-03T03:20:25.900Z,99216.72
2022-12-03T03:22:52.811Z,99216.09
2022-12-03T03:25:24.948Z,99224.06
2022-12-03T03:27:51.878Z,99211.75
2022-12-03T03:30:18.932Z,99215.50
2022-12-03T03:32:45.973Z,99215.72
2022-12-03T03:35:14.551Z,99215.44
2022-12-03T03:37:42.278Z,99224.94
2022-12-03T03:40:09.754Z,99183.81
2022-12-03T03:42:38.327Z,99213.72
2022-12-03T03:45:07.357Z,99222.78
2022-12-03T03:47:34.505Z,99218.22
2022-12-03T03:50:02.013Z,99221.06
2022-12-03T03:52:29.167Z,99200.03
2022-12-03T03:54:56.376Z,99219.84
2022-12-03T03:57:23.500Z,99221.00
2022-12-03T03:59:50.464Z,99218.59
2022-12-03T04:02:22.289Z,99221.34
2022-12-03T04:04:50.183Z,99215.38
2022-12-03T04:07:17.798Z,99223.66
2022-12-03T04:09:45.010Z,99215.72
2022-12-03T04:12:33.201Z,99211.13
2022-12-03T04:15:00.331Z,99216.28
2022-12-03T04:17:27.371Z,99211.47
2022-12-03T04:22:41.618Z,99223.81
2022-12-03T04:25:28.742Z,99218.88
2022-12-03T04:28:14.076Z,99223.22
2022-12-03T04:30:41.086Z,99229.03
2022-12-03T04:33:26.439Z,99230.59
2022-12-03T04:35:53.504Z,99230.25
2022-12-03T04:38:20.525Z,99225.88
2022-12-03T04:41:13.911Z,99223.28
2022-12-03T04:44:00.812Z,99223.91
2022-12-03T04:46:27.803Z,99228.72
2022-12-03T04:48:54.687Z,99225.16
2022-12-03T04:51:21.609Z,99191.75
2022-12-03T04:53:48.476Z,99221.25
2022-12-03T04:56:15.436Z,99224.75
2022-12-03T04:58:42.374Z,99218.22
2022-12-03T05:01:09.404Z,99213.88
2022-12-03T05:03:36.408Z,99209.31
2022-12-03T05:06:03.518Z,99205.91
2022-12-03T05:08:30.563Z,99209.59
2022-12-03T05:10:57.435Z,99210.09
2022-12-03T05:13:24.347Z,99215.59
2022-12-03T05:15:51.265Z,99212.00
2022-12-03T05:18:18.264Z,99217.53
2022-12-03T05:20:52.933Z,99204.03
2022-12-03T05:23:20.397Z,99211.56
2022-12-03T05:25:47.333Z,99215.84
2022-12-03T05:28:14.411Z,99208.81
2022-12-03T05:30:41.572Z,99207.72
2022-12-03T05:33:08.603Z,99213.97
2022-12-03T05:35:35.574Z,99203.34
2022-12-03T05:38:02.517Z,99205.34
2022-12-03T05:40:29.405Z,99207.38
2022-12-03T05:43:01.362Z,99169.88
2022-12-03T05:45:35.453Z,99205.66
2022-12-03T05:48:03.997Z,99205.47
2022-12-03T05:50:33.781Z,99200.03
2022-12-03T05:53:01.086Z,99209.22
2022-12-03T05:55:31.823Z,99209.47
2022-12-03T05:57:58.866Z,99221.78
2022-12-03T06:00:30.861Z,99206.28
2022-12-03T06:02:58.105Z,99217.44
2022-12-03T06:05:26.230Z,99213.41
2022-12-03T06:07:53.490Z,99212.59
2022-12-03T06:10:24.852Z,99216.09
2022-12-03T06:12:52.212Z,99219.47
2022-12-03T06:15:19.872Z,99228.09
2022-12-03T06:17:46.879Z,99229.78
2022-12-03T06:20:19.780Z,99221.31
2022-12-03T06:22:47.657Z,99221.13
2022-12-03T06:25:15.075Z,99204.78
2022-12-03T06:27:42.175Z,99219.47
2022-12-03T06:30:12.445Z,99221.47
2022-12-03T06:32:39.379Z,99229.41
2022-12-03T06:35:06.500Z,99231.88
2022-12-03T06:37:33.405Z,99225.09
2022-12-03T06:40:00.333Z,99227.75
2022-12-03T06:42:27.231Z,99229.66
2022-12-03T06:44:55.442Z,99239.06
2022-12-03T06:47:22.622Z,99247.31
2022-12-03T06:49:49.575Z,99254.94
2022-12-03T06:52:16.913Z,99249.09
2022-12-03T06:54:43.930Z,99253.00
2022-12-03T06:57:10.897Z,99226.75
2022-12-03T06:59:38.266Z,99242.28
2022-12-03T07:02:05.775Z,99247.34
2022-12-03T07:04:32.727Z,99253.44
2022-12-03T07:06:59.736Z,99260.09
2022-12-03T07:09:28.989Z,99250.84
2022-12-03T07:11:56.024Z,99245.81
2022-12-03T07:14:22.991Z,99255.25
2022-12-03T07:16:49.968Z,99243.69
2022-12-03T07:19:16.922Z,99250.50
2022-12-03T07:21:45.474Z,99250.75
2022-12-03T07:24:12.532Z,99250.34
2022-12-03T07:26:39.509Z,99256.63
2022-12-03T07:29:06.454Z,99246.78
2022-12-03T07:31:33.483Z,99255.06
2022-12-03T07:34:00.480Z,99260.56
2022-12-03T07:36:27.389Z,99273.72
2022-12-03T07:38:54.274Z,99271.81
2022-12-03T07:41:21.241Z,99258.88
2022-12-03T07:43:48.190Z,99252.09
2022-12-03T07:46:15.152Z,99259.50
2022-12-03T07:48:42.203Z,99261.09
2022-12-03T07:51:14.299Z,99255.44
2022-12-03T07:53:42.396Z,99255.06
2022-12-03T07:56:24.513Z,99253.97
2022-12-03T07:58:51.396Z,99252.19
2022-12-03T08:01:18.387Z,99247.16
2022-12-03T08:03:45.435Z,99237.03
2022-12-03T08:06:12.355Z,99233.59
2022-12-03T08:08:39.532Z,99246.69
2022-12-03T08:11:06.696Z,99243.47
2022-12-03T08:13:34.182Z,99256.84
2022-12-03T08:16:09.280Z,99250.75
2022-12-03T08:18:36.305Z,99236.81
2022-12-03T08:21:05.336Z,99243.16
2022-12-03T08:23:32.235Z,99244.09
2022-12-03T08:26:02.380Z,99235.78
2022-12-03T08:28:29.374Z,99238.81
2022-12-03T08:31:18.781Z,99236.78
2022-12-03T08:33:48.399Z,99239.56
2022-12-03T08:36:24.336Z,99241.88
2022-12-03T08:38:59.443Z,99240.69
2022-12-03T08:41:45.498Z,99244.00
2022-12-03T08:44:28.355Z,99244.78
2022-12-03T08:47:13.997Z,99244.03
2022-12-03T08:49:41.260Z,99249.94
2022-12-03T08:52:19.013Z,99248.06
2022-12-03T08:54:53.119Z,99247.88
2022-12-03T08:57:33.243Z,99254.97
2022-12-03T09:00:23.379Z,99256.72
2022-12-03T09:02:53.490Z,99259.44
2022-12-03T09:05:32.643Z,99254.91
2022-12-03T09:07:59.658Z,99252.59
2022-12-03T09:10:26.621Z,99227.56
2022-12-03T09:12:53.502Z,99257.63
2022-12-03T09:15:20.479Z,99251.72
2022-12-03T09:17:47.475Z,99250.09
2022-12-03T09:20:14.484Z,99254.91
2022-12-03T09:22:41.420Z,99239.22
2022-12-03T09:25:08.666Z,99244.56
2022-12-03T09:27:35.771Z,99249.19
2022-12-03T09:30:02.921Z,99247.19
2022-12-03T09:32:30.100Z,99243.75
2022-12-03T09:34:57.256Z,99256.09
2022-12-03T09:37:30.537Z,99256.28
2022-12-03T09:39:57.464Z,99259.38
2022-12-03T09:42:25.660Z,99253.75
2022-12-03T09:44:53.616Z,99248.56
2022-12-03T09:47:21.284Z,99254.06
2022-12-03T09:49:48.392Z,99245.72
2022-12-03T09:52:24.897Z,99251.66
2022-12-03T09:54:53.489Z,99254.75
2022-12-03T09:57:21.040Z,99246.81
2022-12-03T09:59:48.075Z,99249.72
2022-12-03T10:02:31.618Z,99257.94
2022-12-03T10:04:58.995Z,99249.22
2022-12-03T10:07:26.508Z,99254.25
2022-12-03T10:09:53.957Z,99254.28
2022-12-03T10:12:25.052Z,99260.34
2022-12-03T10:14:53.787Z,99250.97
2022-12-03T10:17:21.139Z,99248.56
2022-12-03T10:19:48.357Z,99247.81
2022-12-03T10:22:15.438Z,99236.44
2022-12-03T10:24:45.165Z,99232.00
2022-12-03T10:27:29.582Z,99241.88
2022-12-03T10:29:59.177Z,99241.19
2022-12-03T10:32:38.685Z,99196.28
2022-12-03T10:35:14.895Z,99228.06
2022-12-03T10:37:56.931Z,99225.34
2022-12-03T10:40:32.211Z,99230.22
2022-12-03T10:43:20.589Z,99229.63
2022-12-03T10:46:09.913Z,99222.53
2022-12-03T10:48:36.962Z,99232.19
2022-12-03T10:51:21.051Z,99233.63
2022-12-03T10:53:49.673Z,99226.97
2022-12-03T10:56:25.853Z,99220.44
2022-12-03T10:58:53.459Z,99221.19
2022-12-03T11:01:26.355Z,99225.91
2022-12-03T11:03:56.839Z,99211.09
2022-12-03T11:06:24.005Z,99219.06
2022-12-03T11:09:00.332Z,99210.38
2022-12-03T11:11:31.145Z,99206.75
2022-12-03T11:14:03.615Z,99197.22
2022-12-03T11:16:39.638Z,99208.22
2022-12-03T11:19:12.645Z,99205.69
2022-12-03T11:22:05.496Z,99206.13
2022-12-03T11:24:40.875Z,99206.63
2022-12-03T11:27:17.405Z,99201.28
2022-12-03T11:30:01.907Z,99205.31
2022-12-03T11:32:38.129Z,99205.19
2022-12-03T11:35:13.305Z,99202.75
2022-12-03T11:37:40.655Z,99200.72
2022-12-03T11:40:27.634Z,99190.19
2022-12-03T11:42:54.592Z,99198.53
2022-12-03T11:45:33.630Z,99196.72
2022-12-03T11:48:02.474Z,99198.75
2022-12-03T11:50:39.726Z,99196.34
2022-12-03T11:53:13.404Z,99192.38
2022-12-03T11:56:08.649Z,99186.69
2022-12-03T11:58:38.536Z,99184.53
2022-12-03T12:01:08.271Z,99173.41
2022-12-03T12:03:42.002Z,99184.50
2022-12-03T12:06:22.920Z,99182.81
2022-12-03T12:08:52.614Z,99181.84
2022-12-03T12:11:28.482Z,99190.81
2022-12-03T12:14:10.597Z,99193.81
2022-12-03T12:16:52.767Z,99196.00
2022-12-03T12:19:35.905Z,99191.78
2022-12-03T12:22:27.408Z,99192.13
2022-12-03T12:24:56.294Z,99188.16
2022-12-03T12:27:24.887Z,99191.25
2022-12-03T12:29:57.382Z,99176.28
2022-12-03T12:32:44.117Z,99177.03
2022-12-03T12:35:20.081Z,99187.28
2022-12-03T12:38:00.067Z,99170.75
2022-12-03T12:40:32.570Z,99171.34
2022-12-03T12:43:04.324Z,99170.50
2022-12-03T12:45:39.778Z,99159.38
2022-12-03T12:48:15.768Z,99158.91
2022-12-03T12:50:44.970Z,99160.81
2022-12-03T12:53:26.840Z,99156.25
2022-12-03T12:56:14.373Z,99156.97
2022-12-03T12:58:42.504Z,99157.59
2022-12-03T13:01:21.367Z,99148.41
2022-12-03T13:03:52.229Z,99159.13
2022-12-03T13:06:25.733Z,99159.63
2022-12-03T13:08:53.966Z,99160.47
2022-12-03T13:11:38.991Z,99154.91
2022-12-03T13:14:31.654Z,99156.50
2022-12-03T13:17:01.381Z,99162.28
2022-12-03T13:19:30.465Z,99160.34
2022-12-03T13:22:01.973Z,99155.88
2022-12-03T13:24:47.977Z,99163.00
2022-12-03T13:27:17.687Z,99158.66
2022-12-03T13:29:45.724Z,99169.06
2022-12-03T13:32:18.964Z,99169.91
2022-12-03T13:34:46.939Z,99178.72
2022-12-03T13:37:19.197Z,99168.09
2022-12-03T13:39:51.729Z,99179.66
2022-12-03T13:42:40.820Z,99185.97
2022-12-03T13:45:16.864Z,99184.97
2022-12-03T13:47:54.266Z,99171.22
2022-12-03T13:50:42.236Z,99172.44
2022-12-03T13:53:11.965Z,99169.53
2022-12-03T13:55:43.702Z,99167.97
2022-12-03T13:58:10.686Z,99163.72
2022-12-03T14:00:37.886Z,99157.34
2022-12-03T14:03:05.611Z,99165.19
2022-12-03T14:05:32.585Z,99163.97
2022-12-03T14:08:02.275Z,99156.25
2022-12-03T14:10:30.138Z,99158.06
2022-12-03T14:12:57.848Z,99163.38
2022-12-03T14:15:27.352Z,99164.09
2022-12-03T14:17:54.388Z,99158.91
2022-12-03T14:20:22.405Z,99151.66
2022-12-03T14:22:49.538Z,99151.28
2022-12-03T14:25:16.602Z,99152.38
2022-12-03T14:27:43.663Z,99158.19
2022-12-03T14:30:11.174Z,99154.78
2022-12-03T14:32:38.119Z,99156.59
2022-12-03T14:35:09.923Z,99159.03
2022-12-03T14:37:37.741Z,99129.78
2022-12-03T14:40:07.299Z,99156.75
2022-12-03T14:42:34.233Z,99162.06
2022-12-03T14:45:01.301Z,99167.13
2022-12-03T14:47:28.216Z,99159.16
2022-12-03T14:49:55.376Z,99160.09
2022-12-03T14:52:22.585Z,99169.03
2022-12-03T14:54:49.705Z,99169.41
2022-12-03T14:57:17.055Z,99169.06
2022-12-03T14:59:45.066Z,99168.69
2022-12-03T15:02:13.213Z,99176.41
2022-12-03T15:04:41.329Z,99174.72
2022-12-03T15:07:09.066Z,99171.94
2022-12-03T15:09:36.043Z,99175.59
2022-12-03T15:12:04.427Z,99171.97
2022-12-03T15:14:31.353Z,99169.75
2022-12-03T15:16:58.330Z,99168.44
2022-12-03T15:19:25.335Z,99171.47
2022-12-03T15:21:52.309Z,99166.38
2022-12-03T15:24:19.591Z,99172.56
2022-12-03T15:26:46.472Z,99156.47
2022-12-03T15:29:13.439Z,99176.91
2022-12-03T15:31:40.591Z,99179.44
2022-12-03T15:34:07.615Z,99183.69
2022-12-03T15:36:34.754Z,99177.88
2022-12-03T15:39:01.734Z,99178.44
2022-12-03T15:41:31.473Z,99186.69
2022-12-03T15:44:02.263Z,99179.69
2022-12-03T15:46:31.516Z,99185.72
2022-12-03T15:48:58.948Z,99180.00
2022-12-03T15:51:26.035Z,99175.44
2022-12-03T15:53:52.917Z,99184.72
2022-12-03T15:56:19.855Z,99176.38
2022-12-03T15:58:46.802Z,99191.16
2022-12-03T16:01:14.054Z,99194.31
2022-12-03T16:03:41.889Z,99184.97
2022-12-03T16:06:08.938Z,99184.38
2022-12-03T16:08:36.004Z,99189.69
2022-12-03T16:11:03.033Z,99194.81
2022-12-03T16:13:29.967Z,99193.69
2022-12-03T16:15:56.980Z,99194.16
2022-12-03T16:18:23.945Z,99181.25
2022-12-03T16:20:50.933Z,99186.41
2022-12-03T16:23:17.878Z,99182.31
2022-12-03T16:25:44.908Z,99185.22
2022-12-03T16:28:11.974Z,99182.56
2022-12-03T16:30:39.721Z,99188.13
2022-12-03T16:33:06.664Z,99184.00
2022-12-03T16:35:33.885Z,99172.31
2022-12-03T16:38:01.036Z,99176.16
2022-12-03T16:40:29.282Z,99178.19
2022-12-03T16:42:56.180Z,99163.94
2022-12-03T16:45:29.811Z,99163.94
2022-12-03T16:47:56.746Z,99160.06
2022-12-03T16:50:29.397Z,99162.72
2022-12-03T16:52:57.989Z,99163.22
2022-12-03T16:55:25.284Z,99159.00
2022-12-03T16:57:52.258Z,99161.16
2022-12-03T17:00:22.193Z,99167.56
2022-12-03T17:02:49.255Z,99170.84
2022-12-03T17:05:16.317Z,99168.78
2022-12-03T17:07:43.473Z,99173.38
2022-12-03T17:10:11.084Z,99163.22
2022-12-03T17:13:07.783Z,99169.53
2022-12-03T17:15:25.011Z,99162.13
2022-12-03T17:17:51.931Z,99156.59
2022-12-03T17:20:19.130Z,99161.91
2022-12-03T17:22:46.621Z,99130.13
2022-12-03T17:25:13.514Z,99144.97
2022-12-03T17:27:45.197Z,99142.56
2022-12-03T17:30:13.252Z,99134.47
2022-12-03T17:32:40.296Z,99144.16
2022-12-03T17:35:08.692Z,99141.38
2022-12-03T17:37:36.505Z,99130.75
2022-12-03T17:40:08.254Z,99141.63
2022-12-03T17:42:35.280Z,99142.47
2022-12-03T17:45:02.496Z,99138.84
2022-12-03T17:47:29.717Z,99138.47
2022-12-03T17:49:57.252Z,99133.75
2022-12-03T17:52:24.652Z,99132.31
2022-12-03T17:57:38.511Z,99130.03
2022-12-03T18:00:06.157Z,99136.91
2022-12-03T18:02:33.156Z,99120.97
2022-12-03T18:05:00.110Z,99136.78
2022-12-03T18:07:27.131Z,99123.16
2022-12-03T18:09:54.279Z,99133.06
2022-12-03T18:12:21.407Z,99134.41
2022-12-03T18:14:48.328Z,99128.59
2022-12-03T18:17:15.279Z,99128.69
2022-12-03T18:19:42.269Z,99119.78
2022-12-03T18:22:09.586Z,99122.91
2022-12-03T18:24:36.658Z,99128.22
2022-12-03T18:27:03.763Z,99125.06
2022-12-03T18:29:30.754Z,99122.66
2022-12-03T18:31:57.737Z,99120.59
2022-12-03T18:35:18.271Z,99114.81
2022-12-03T18:37:45.400Z,99116.50
2022-12-03T18:40:22.823Z,99117.34
2022-12-03T18:42:49.794Z,99107.06
2022-12-03T18:45:17.073Z,99108.03
2022-12-03T18:47:44.187Z,99101.88
2022-12-03T18:50:12.412Z,99112.84
2022-12-03T18:52:39.894Z,99120.44
2022-12-03T18:55:07.853Z,99101.88
2022-12-03T18:57:34.789Z,99099.91
2022-12-03T19:00:01.790Z,99091.13
2022-12-03T19:05:15.808Z,99092.06
2022-12-03T19:07:43.535Z,99096.88
2022-12-03T19:10:11.683Z,99094.72
2022-12-03T19:12:39.156Z,99096.53
2022-12-03T19:15:06.783Z,99101.97
2022-12-03T19:17:33.837Z,99105.00
2022-12-03T19:20:00.808Z,99101.50
2022-12-03T19:22:27.762Z,99105.22
2022-12-03T19:24:54.737Z,99099.44
2022-12-03T19:27:21.741Z,99095.31
2022-12-03T19:29:49.277Z,99104.84
2022-12-03T19:32:16.355Z,99100.88
2022-12-03T19:34:43.298Z,99103.16
2022-12-03T19:37:10.258Z,99105.44
2022-12-03T19:39:37.143Z,99113.47
2022-12-03T19:42:04.481Z,99112.94
2022-12-03T19:44:31.458Z,99112.72
2022-12-03T19:46:58.634Z,99112.72
2022-12-03T19:49:25.609Z,99124.78
2022-12-03T19:51:52.696Z,99122.84
2022-12-03T19:54:19.917Z,99120.31
2022-12-03T19:56:47.103Z,99116.44
2022-12-03T19:59:14.860Z,99120.22
2022-12-03T20:01:43.534Z,99105.59
2022-12-03T20:04:12.258Z,99120.59
2022-12-03T20:06:40.044Z,99121.44
2022-12-03T20:09:12.138Z,99121.66
2022-12-03T20:11:40.777Z,99128.78
2022-12-03T20:14:12.729Z,99126.28
2022-12-03T20:16:39.743Z,99123.84
2022-12-03T20:19:10.335Z,99115.75
2022-12-03T20:21:38.189Z,99110.91
2022-12-03T20:24:06.356Z,99114.69
2022-12-03T20:26:33.812Z,99094.00
2022-12-03T20:29:01.178Z,99111.88
2022-12-03T20:31:31.610Z,99105.34
2022-12-03T20:34:01.578Z,99101.72
2022-12-03T20:36:30.395Z,99101.59
2022-12-03T20:38:59.556Z,99097.84
2022-12-03T20:41:27.298Z,99105.22
2022-12-03T20:43:54.607Z,99104.47
2022-12-03T20:46:27.790Z,99106.38
2022-12-03T20:48:56.636Z,99102.75
2022-12-03T20:51:28.348Z,99095.63
2022-12-03T20:53:55.965Z,99098.91
2022-12-03T20:56:32.004Z,99099.28
2022-12-03T20:59:05.207Z,99082.25
2022-12-03T21:01:32.940Z,99097.84
2022-12-03T21:04:00.045Z,99091.19
2022-12-03T21:06:30.179Z,99094.69
2022-12-03T21:08:58.633Z,99095.53
2022-12-03T21:11:29.974Z,99104.75
2022-12-03T21:13:58.774Z,99102.56
2022-12-03T21:17:06.473Z,99098.34
2022-12-03T21:19:23.691Z,99099.44
2022-12-03T21:21:50.836Z,99099.78
2022-12-03T21:24:17.872Z,99100.28
2022-12-03T21:26:44.908Z,99104.53
2022-12-03T21:29:12.021Z,99105.25
2022-12-03T21:31:40.216Z,99107.66
2022-12-03T21:34:08.964Z,99109.34
2022-12-03T21:36:36.209Z,99106.47
2022-12-03T21:39:03.995Z,99113.94
2022-12-03T21:41:31.144Z,99106.69
2022-12-03T21:43:58.928Z,99111.16
2022-12-03T21:47:10.568Z,99113.09
2022-12-03T21:49:12.892Z,99115.28
2022-12-03T21:51:39.753Z,99108.03
2022-12-03T21:54:06.699Z,99116.97
2022-12-03T21:56:33.643Z,99110.22
2022-12-03T21:59:00.643Z,99107.81
2022-12-03T22:01:27.826Z,99097.16
2022-12-03T22:03:55.030Z,99102.94
2022-12-03T22:06:22.555Z,99108.41
2022-12-03T22:08:49.984Z,99073.47
2022-12-03T22:11:20.097Z,99096.53
2022-12-03T22:13:47.936Z,99091.72
2022-12-03T22:16:17.975Z,99091.44
2022-12-03T22:18:45.979Z,99090.22
2022-12-03T22:21:16.331Z,99086.34
2022-12-03T22:23:43.601Z,99095.75
2022-12-03T22:26:16.289Z,99089.75
2022-12-03T22:28:45.437Z,99085.50
2022-12-03T22:31:14.272Z,99086.13
2022-12-03T22:33:41.432Z,99082.81
2022-12-03T22:36:17.999Z,99084.63
2022-12-03T22:38:47.366Z,99078.69
2022-12-03T22:41:16.023Z,99067.22
2022-12-03T22:43:43.205Z,99072.53
2022-12-03T22:46:12.883Z,99078.06
2022-12-03T22:48:41.276Z,99090.25
2022-12-03T22:51:17.537Z,99078.78
2022-12-03T22:53:44.589Z,99079.50
2022-12-03T22:56:11.940Z,99073.44
2022-12-03T22:58:40.182Z,99080.22
2022-12-03T23:01:08.025Z,99065.44
2022-12-03T23:03:35.287Z,99048.81
2022-12-03T23:06:10.054Z,99065.22
2022-12-03T23:08:36.973Z,99073.41
2022-12-03T23:11:03.857Z,99068.69
2022-12-03T23:13:30.789Z,99071.69
2022-12-03T23:15:57.770Z,99072.97
2022-12-03T23:18:24.793Z,99057.91
2022-12-03T23:20:54.717Z,99056.50
2022-12-03T23:23:23.523Z,99061.28
2022-12-03T23:26:06.312Z,99071.44
2022-12-03T23:28:34.924Z,99066.38
2022-12-03T23:31:02.055Z,99055.09
2022-12-03T23:33:31.994Z,99051.94
2022-12-03T23:36:06.175Z,99056.63
2022-12-03T23:38:33.106Z,99059.63
2022-12-03T23:41:07.994Z,99051.56
2022-12-03T23:43:35.344Z,99055.47
2022-12-03T23:46:07.373Z,99049.56
2022-12-03T23:48:34.468Z,99047.34
2022-12-03T23:51:12.307Z,99033.44
2022-12-03T23:53:40.237Z,99046.75
2022-12-03T23:56:08.475Z,99047.47
2022-12-03T23:58:35.606Z,99049.75
